createdAt,value
2023-01-13T00:04:35.496Z,80.46
2023-01-13T00:09:37.841Z,80.19
2023-01-13T00:14:40.133Z,83.35
2023-01-13T00:19:42.422Z,84.71
2023-01-13T00:24:44.628Z,82.84
2023-01-13T00:29:46.903Z,81.53
2023-01-13T00:34:49.126Z,79.20
2023-01-13T00:39:54.577Z,76.85
2023-01-13T00:44:56.926Z,75.92
2023-01-13T00:49:59.203Z,74.06
2023-01-13T00:55:01.532Z,72.99
2023-01-13T01:00:04.734Z,72.22
2023-01-13T01:05:07.799Z,74.08
2023-01-13T01:10:10.665Z,73.68
2023-01-13T01:15:12.884Z,74.21
2023-01-13T01:20:15.212Z,69.95
2023-01-13T01:25:17.431Z,71.61
2023-01-13T01:30:19.658Z,70.10
2023-01-13T01:35:21.895Z,70.40
2023-01-13T01:40:24.188Z,68.20
2023-01-13T01:45:28.634Z,67.55
2023-01-13T01:50:31.261Z,68.62
2023-01-13T01:55:35.326Z,69.95
2023-01-13T02:00:37.766Z,69.50
2023-01-13T02:05:40.162Z,68.11
2023-01-13T02:10:43.223Z,68.58
2023-01-13T02:16:12.868Z,66.38
2023-01-13T02:21:24.315Z,68.71
2023-01-13T02:27:03.983Z,67.56
2023-01-13T02:32:17.228Z,67.46
2023-01-13T02:37:28.835Z,68.80
2023-01-13T02:42:53.066Z,66.19
2023-01-13T02:47:57.170Z,65.92
2023-01-13T02:53:02.537Z,67.25
2023-01-13T02:58:06.735Z,66.03
2023-01-13T03:03:08.824Z,66.25
2023-01-13T03:08:19.159Z,66.08
2023-01-13T03:13:30.158Z,65.08
2023-01-13T03:18:42.925Z,62.89
2023-01-13T03:24:05.982Z,63.94
2023-01-13T03:29:19.016Z,60.88
2023-01-13T03:34:22.556Z,61.63
2023-01-13T03:39:33.558Z,62.61
2023-01-13T03:44:54.888Z,60.61
2023-01-13T03:50:01.479Z,60.57
2023-01-13T03:55:09.619Z,60.13
2023-01-13T04:00:13.444Z,59.50
2023-01-13T04:05:17.217Z,62.52
2023-01-13T04:10:31.790Z,62.33
2023-01-13T04:15:40.315Z,62.91
2023-01-13T04:20:43.905Z,65.10
2023-01-13T04:25:46.813Z,62.96
2023-01-13T04:30:49.411Z,61.11
2023-01-13T04:35:52.668Z,62.60
2023-01-13T04:40:54.945Z,62.48
2023-01-13T04:45:57.058Z,63.07
2023-01-13T04:50:59.167Z,62.43
2023-01-13T04:56:01.212Z,62.98
2023-01-13T05:01:03.372Z,64.86
2023-01-13T05:06:05.671Z,62.77
2023-01-13T05:11:27.719Z,63.70
2023-01-13T05:16:48.470Z,62.16
2023-01-13T05:22:09.174Z,63.60
2023-01-13T05:27:11.525Z,64.34
2023-01-13T05:32:13.790Z,65.45
2023-01-13T05:37:16.272Z,63.45
2023-01-13T05:42:37.007Z,64.11
2023-01-13T05:47:39.226Z,62.40
2023-01-13T05:52:41.308Z,62.01
2023-01-13T05:57:43.568Z,63.22
2023-01-13T06:02:45.654Z,65.67
2023-01-13T06:07:47.719Z,64.45
2023-01-13T06:12:49.813Z,62.07
2023-01-13T06:17:52.086Z,64.49
2023-01-13T06:22:54.624Z,62.49
2023-01-13T06:27:57.339Z,63.19
2023-01-13T06:33:01.848Z,62.89
2023-01-13T06:38:05.477Z,63.65
2023-01-13T06:43:17.272Z,63.77
2023-01-13T06:48:32.980Z,62.92
2023-01-13T06:53:35.161Z,63.87
2023-01-13T06:58:37.263Z,63.66
2023-01-13T07:03:40.457Z,61.81
2023-01-13T07:08:42.517Z,62.89
2023-01-13T07:14:03.433Z,63.63
2023-01-13T07:19:05.440Z,63.35
2023-01-13T07:24:07.587Z,62.02
2023-01-13T07:29:09.605Z,59.94
2023-01-13T07:34:11.763Z,62.88
2023-01-13T07:39:13.875Z,60.81
2023-01-13T07:44:15.986Z,61.63
2023-01-13T07:49:18.216Z,62.88
2023-01-13T07:54:25.530Z,61.79
2023-01-13T07:59:33.728Z,62.71
2023-01-13T08:04:35.844Z,61.68
2023-01-13T08:09:38.085Z,62.32
2023-01-13T08:14:40.249Z,61.78
2023-01-13T08:19:42.395Z,60.42
2023-01-13T08:24:44.414Z,62.11
2023-01-13T08:29:46.450Z,59.32
2023-01-13T08:34:48.663Z,59.71
2023-01-13T08:39:50.784Z,61.53
2023-01-13T08:44:53.154Z,58.25
2023-01-13T08:49:55.270Z,59.61
2023-01-13T08:54:57.343Z,58.56
2023-01-13T08:59:59.444Z,60.86
2023-01-13T09:05:03.820Z,59.71
2023-01-13T09:10:07.031Z,59.29
2023-01-13T09:15:09.741Z,59.69
2023-01-13T09:20:12.755Z,60.75
2023-01-13T09:25:14.858Z,58.50
2023-01-13T09:30:17.092Z,59.65
2023-01-13T09:35:19.140Z,60.28
2023-01-13T09:40:23.960Z,59.47
2023-01-13T09:45:29.376Z,61.40
2023-01-13T09:50:38.616Z,58.47
2023-01-13T09:55:40.689Z,59.63
2023-01-13T10:01:16.740Z,60.33
2023-01-13T10:06:35.680Z,58.51
2023-01-13T10:11:58.451Z,58.46
2023-01-13T10:17:17.929Z,59.95
2023-01-13T10:22:23.149Z,58.38
2023-01-13T10:27:32.416Z,60.93
2023-01-13T10:32:34.488Z,60.76
2023-01-13T10:37:36.665Z,58.64
2023-01-13T10:42:38.675Z,59.83
2023-01-13T10:47:41.055Z,58.90
2023-01-13T10:53:24.849Z,58.44
2023-01-13T10:58:27.783Z,57.68
2023-01-13T11:03:40.501Z,58.47
2023-01-13T11:08:45.535Z,56.57
2023-01-13T11:14:09.172Z,54.78
2023-01-13T11:19:15.934Z,55.55
2023-01-13T11:24:37.968Z,55.72
2023-01-13T11:29:51.786Z,56.72
2023-01-13T11:35:03.520Z,55.97
2023-01-13T11:40:17.257Z,54.65
2023-01-13T11:45:37.705Z,53.96
2023-01-13T11:50:51.192Z,62.65
2023-01-13T11:56:14.997Z,69.07
2023-01-13T12:01:23.357Z,70.06
2023-01-13T12:06:37.171Z,71.66
2023-01-13T12:12:13.265Z,73.36
2023-01-13T12:17:41.112Z,69.82
2023-01-13T12:22:46.005Z,68.99
2023-01-13T12:27:55.362Z,69.28
2023-01-13T12:33:03.419Z,68.07
2023-01-13T12:38:28.105Z,68.85
2023-01-13T12:43:49.652Z,72.89
2023-01-13T12:48:54.767Z,70.25
2023-01-13T12:53:56.921Z,70.94
2023-01-13T12:59:18.855Z,69.13
2023-01-13T13:04:42.049Z,69.23
2023-01-13T13:09:48.902Z,67.98
2023-01-13T13:14:51.067Z,69.08
2023-01-13T13:19:53.194Z,66.89
2023-01-13T13:24:55.681Z,67.53
2023-01-13T13:30:18.517Z,66.78
2023-01-13T13:35:57.916Z,66.58
2023-01-13T13:41:18.651Z,67.13
2023-01-13T13:46:48.250Z,66.26
2023-01-13T13:52:10.809Z,64.81
2023-01-13T13:57:18.047Z,64.93
2023-01-13T14:02:31.691Z,66.84
2023-01-13T14:07:45.534Z,66.13
2023-01-13T14:12:47.714Z,63.48
2023-01-13T14:17:49.819Z,66.05
2023-01-13T14:22:53.545Z,65.45
2023-01-13T14:27:56.369Z,64.06
2023-01-13T14:32:58.502Z,65.24
2023-01-13T14:38:04.355Z,64.53
2023-01-13T14:43:12.928Z,65.64
2023-01-13T14:48:14.962Z,65.16
2023-01-13T14:53:36.777Z,69.47
2023-01-13T14:58:38.843Z,68.62
2023-01-13T15:03:42.379Z,68.67
2023-01-13T15:08:44.695Z,69.32
2023-01-13T15:13:53.278Z,68.90
2023-01-13T15:18:56.607Z,70.37
2023-01-13T15:24:03.482Z,71.03
2023-01-13T15:29:11.753Z,71.31
2023-01-13T15:34:13.909Z,71.31
2023-01-13T15:39:16.069Z,71.57
2023-01-13T15:44:36.936Z,73.39
2023-01-13T15:49:46.051Z,72.44
2023-01-13T15:54:49.020Z,75.89
2023-01-13T15:59:53.411Z,75.50
2023-01-13T16:04:55.615Z,73.53
2023-01-13T16:09:57.904Z,75.89
2023-01-13T16:15:00.983Z,77.19
2023-01-13T16:20:03.669Z,72.74
2023-01-13T16:25:06.223Z,72.87
2023-01-13T16:30:22.093Z,69.08
2023-01-13T16:35:25.650Z,72.96
2023-01-13T16:40:31.271Z,72.27
2023-01-13T16:45:34.578Z,68.79
2023-01-13T16:50:40.789Z,69.41
2023-01-13T16:55:43.427Z,69.03
2023-01-13T17:00:48.917Z,69.21
2023-01-13T17:05:51.356Z,70.10
2023-01-13T17:10:53.624Z,68.00
2023-01-13T17:15:55.765Z,69.67
2023-01-13T17:20:58.768Z,70.27
2023-01-13T17:26:00.908Z,69.09
2023-01-13T17:31:03.086Z,71.85
2023-01-13T17:36:05.354Z,70.84
2023-01-13T17:41:07.538Z,72.52
2023-01-13T17:46:11.372Z,72.59
2023-01-13T17:51:14.579Z,73.71
2023-01-13T17:56:18.820Z,71.23
2023-01-13T18:01:22.423Z,68.38
2023-01-13T18:06:24.671Z,65.64
2023-01-13T18:11:27.252Z,69.58
2023-01-13T18:16:30.919Z,69.27
2023-01-13T18:21:51.654Z,68.75
2023-01-13T18:27:12.458Z,70.32
2023-01-13T18:32:14.796Z,68.59
2023-01-13T18:37:17.260Z,66.18
2023-01-13T18:42:39.001Z,65.89
2023-01-13T18:47:42.250Z,65.21
2023-01-13T18:52:44.944Z,64.86
2023-01-13T18:57:47.784Z,65.40
2023-01-13T19:08:08.362Z,64.73
2023-01-13T19:13:10.562Z,67.07
2023-01-13T19:18:14.865Z,67.01
2023-01-13T19:23:18.244Z,63.98
2023-01-13T19:28:21.856Z,64.25
2023-01-13T19:33:24.105Z,64.75
2023-01-13T19:38:27.104Z,65.38
2023-01-13T19:43:47.716Z,61.54
2023-01-13T19:48:49.745Z,63.69
2023-01-13T19:53:51.824Z,62.63
2023-01-13T19:58:54.023Z,62.67
2023-01-13T20:04:02.885Z,63.21
2023-01-13T20:09:05.067Z,61.28
2023-01-13T20:14:09.566Z,60.47
2023-01-13T20:19:11.724Z,59.94
2023-01-13T20:24:17.664Z,60.60
2023-01-13T20:29:20.706Z,61.84
2023-01-13T20:34:23.147Z,58.90
2023-01-13T20:39:26.538Z,60.54
2023-01-13T20:44:29.227Z,60.16
2023-01-13T20:49:31.535Z,59.70
2023-01-13T20:54:34.132Z,59.88
2023-01-13T20:59:37.387Z,58.13
2023-01-13T21:04:39.781Z,59.28
2023-01-13T21:09:42.203Z,60.03
2023-01-13T21:15:02.896Z,61.13
2023-01-13T21:20:08.402Z,60.58
2023-01-13T21:25:12.230Z,60.78
2023-01-13T21:30:15.777Z,59.12
2023-01-13T21:35:18.143Z,59.14
2023-01-13T21:40:20.322Z,59.65
2023-01-13T21:45:41.070Z,60.88
2023-01-13T21:50:43.157Z,61.89
2023-01-13T21:55:45.314Z,62.32
2023-01-13T22:00:49.327Z,62.13
2023-01-13T22:05:55.673Z,62.41
2023-01-13T22:11:02.467Z,60.71
2023-01-13T22:16:05.045Z,61.31
2023-01-13T22:21:07.667Z,62.52
2023-01-13T22:26:10.413Z,64.48
2023-01-13T22:31:15.216Z,64.50
2023-01-13T22:36:17.541Z,63.22
2023-01-13T22:41:19.875Z,63.76
2023-01-13T22:46:23.206Z,64.80
2023-01-13T22:51:26.574Z,63.52
2023-01-13T22:56:29.022Z,65.15
2023-01-13T23:01:33.331Z,64.88
2023-01-13T23:06:35.562Z,62.30
2023-01-13T23:11:37.939Z,63.76
2023-01-13T23:16:40.966Z,64.36
2023-01-13T23:21:43.258Z,65.96
2023-01-13T23:26:45.476Z,63.58
2023-01-13T23:31:47.743Z,63.42
2023-01-13T23:36:49.945Z,62.74
2023-01-13T23:41:52.050Z,62.75
2023-01-13T23:46:54.354Z,63.79
2023-01-13T23:51:56.558Z,62.95
2023-01-13T23:56:59.808Z,62.59
